Time;durP1;ratioP1;P1;durP2;ratioP2;P2;SDS_P1;SDS_P2;PMS_P1;PMS_P2;Temp;Humidity;BMP_temperature;BMP_pressure;BME280_temperature;BME280_humidity;BME280_pressure;Samples;Min_cycle;Max_cycle;Signal;HPM_P1;HPM_P2
2022/04/30 00:02:09;;;;;;;8.65;3.15;;;16.30;52.70;;;;;;5014550;28;20022;-69
2022/04/30 00:04:36;;;;;;;4.72;3.20;;;16.30;51.80;;;;;;5014160;28;20049;-65
2022/04/30 00:07:03;;;;;;;6.63;3.60;;;16.30;53.20;;;;;;5014421;28;20034;-69
2022/04/30 00:09:30;;;;;;;7.60;3.30;;;16.20;53.20;;;;;;5014339;28;20115;-65
2022/04/30 00:11:56;;;;;;;9.25;3.45;;;16.20;52.20;;;;;;5014455;28;20513;-71
2022/04/30 00:14:22;;;;;;;4.72;3.63;;;16.20;52.60;;;;;;5014021;28;20034;-71
2022/04/30 00:16:48;;;;;;;7.70;3.75;;;16.10;52.80;;;;;;5014153;28;20030;-66
2022/04/30 00:19:15;;;;;;;6.55;3.65;;;16.10;52.60;;;;;;5014045;28;20040;-65
2022/04/30 00:21:41;;;;;;;8.45;3.30;;;16.00;52.60;;;;;;5013928;28;20029;-65
2022/04/30 00:24:07;;;;;;;4.28;2.80;;;16.00;53.30;;;;;;5014003;28;20033;-65
2022/04/30 00:26:33;;;;;;;4.13;3.00;;;16.00;54.30;;;;;;5013935;28;20026;-69
2022/04/30 00:29:00;;;;;;;4.55;3.22;;;15.90;53.50;;;;;;5014094;28;20026;-65
2022/04/30 00:31:26;;;;;;;5.72;3.30;;;16.00;52.60;;;;;;5013886;28;20017;-71
2022/04/30 00:33:53;;;;;;;5.15;3.10;;;16.00;53.40;;;;;;5014288;28;20092;-64
2022/04/30 00:36:18;;;;;;;6.72;3.10;;;15.90;55.20;;;;;;5013786;28;20036;-65
2022/04/30 00:38:44;;;;;;;9.00;2.90;;;15.90;53.60;;;;;;5013994;28;20018;-71
2022/04/30 00:41:10;;;;;;;6.70;3.33;;;15.90;54.60;;;;;;5013656;28;20368;-65
2022/04/30 00:43:43;;;;;;;5.78;3.47;;;15.90;55.10;;;;;;5013652;28;20030;-65
2022/04/30 00:46:15;;;;;;;5.82;3.97;;;15.90;54.90;;;;;;5013519;28;20045;-70
2022/04/30 00:48:42;;;;;;;4.75;3.15;;;15.90;54.80;;;;;;5013578;28;20093;-64
2022/04/30 00:51:10;;;;;;;4.82;3.50;;;15.90;54.70;;;;;;5013359;28;20025;-69
2022/04/30 00:53:41;;;;;;;9.93;3.63;;;15.80;55.50;;;;;;5013289;28;20048;-65
2022/04/30 00:56:11;;;;;;;8.35;3.67;;;15.80;55.00;;;;;;5013324;28;20030;-65
2022/04/30 00:58:40;;;;;;;6.95;3.10;;;15.70;56.10;;;;;;5011404;28;20113;-65
2022/04/30 01:01:06;;;;;;;7.22;3.63;;;15.70;55.60;;;;;;5010680;28;20033;-65
2022/04/30 01:03:31;;;;;;;10.80;3.83;;;15.60;54.40;;;;;;5010612;28;20425;-65
2022/04/30 01:05:59;;;;;;;14.65;4.18;;;15.50;55.90;;;;;;5012848;28;20045;-65
2022/04/30 01:08:29;;;;;;;8.25;3.70;;;15.50;55.10;;;;;;5012659;28;20033;-69
2022/04/30 01:10:59;;;;;;;8.27;4.13;;;15.50;56.50;;;;;;5013237;28;20109;-69
2022/04/30 01:13:25;;;;;;;11.25;3.40;;;15.30;56.50;;;;;;5012890;28;20367;-65
2022/04/30 01:15:51;;;;;;;7.60;3.90;;;15.30;56.30;;;;;;5013047;28;20049;-71
2022/04/30 01:18:17;;;;;;;7.65;3.78;;;15.30;55.30;;;;;;5012887;28;20430;-65
2022/04/30 01:20:51;;;;;;;6.13;3.30;;;15.10;56.90;;;;;;5013002;28;20036;-70
2022/04/30 01:23:17;;;;;;;9.02;3.85;;;15.20;56.50;;;;;;5013103;28;20120;-71
2022/04/30 01:25:45;;;;;;;7.03;3.50;;;15.10;57.20;;;;;;5013309;28;20026;-70
2022/04/30 01:28:12;;;;;;;7.95;3.83;;;15.00;58.60;;;;;;5012794;28;20422;-64
2022/04/30 01:30:37;;;;;;;11.15;3.58;;;15.00;57.20;;;;;;5013055;28;20053;-65
2022/04/30 01:38:32;;;;;;;8.13;3.78;;;14.80;58.50;;;;;;5013077;28;20076;-65
2022/04/30 01:40:58;;;;;;;8.93;3.83;;;14.80;58.40;;;;;;5013307;28;20054;-64
2022/04/30 01:43:25;;;;;;;6.63;3.53;;;14.90;58.70;;;;;;5013021;28;20471;-70
2022/04/30 01:45:52;;;;;;;7.13;3.85;;;14.80;59.30;;;;;;5013279;28;20022;-70
2022/04/30 01:48:19;;;;;;;6.05;3.30;;;14.70;59.30;;;;;;5013034;28;20426;-64
2022/04/30 01:50:45;;;;;;;6.22;3.80;;;14.80;59.70;;;;;;5012744;28;20100;-69
2022/04/30 01:53:11;;;;;;;5.78;3.20;;;14.80;58.80;;;;;;5012996;28;20471;-65
2022/04/30 01:55:37;;;;;;;9.45;3.50;;;14.80;60.00;;;;;;5012896;28;20037;-64
2022/04/30 01:58:03;;;;;;;7.18;3.30;;;14.70;60.00;;;;;;5013402;28;20025;-70
2022/04/30 02:00:30;;;;;;;7.07;3.53;;;14.70;58.40;;;;;;5012896;28;20027;-67
2022/04/30 02:03:04;;;;;;;4.78;3.20;;;14.70;59.50;;;;;;5013115;28;20021;-69
2022/04/30 02:05:31;;;;;;;10.45;3.40;;;14.60;61.00;;;;;;5012747;28;20068;-64
2022/04/30 02:08:04;;;;;;;5.57;3.17;;;14.60;60.10;;;;;;5028204;28;20174;-71
2022/04/30 02:10:31;;;;;;;11.38;3.60;;;14.70;59.20;;;;;;5012885;28;20026;-64
2022/04/30 02:12:56;;;;;;;10.20;3.75;;;14.60;60.80;;;;;;5013050;28;20030;-64
2022/04/30 02:15:23;;;;;;;8.65;3.90;;;14.60;59.80;;;;;;5012935;28;20037;-65
2022/04/30 02:17:50;;;;;;;10.13;3.50;;;14.60;59.30;;;;;;5012846;28;20101;-64
2022/04/30 02:20:25;;;;;;;6.50;3.50;;;14.50;60.50;;;;;;5016191;28;20026;-64
2022/04/30 02:22:54;;;;;;;8.77;3.85;;;14.50;61.00;;;;;;5016494;28;20470;-64
2022/04/30 02:25:21;;;;;;;7.75;3.70;;;14.40;61.00;;;;;;5016426;28;20405;-65
2022/04/30 02:27:55;;;;;;;14.52;3.88;;;14.40;60.70;;;;;;5016378;28;20037;-66
2022/04/30 02:30:23;;;;;;;4.85;3.58;;;14.40;59.70;;;;;;5016315;28;20022;-70
2022/04/30 02:32:51;;;;;;;8.05;3.47;;;14.40;60.60;;;;;;5016341;28;20022;-64
2022/04/30 02:35:20;;;;;;;13.90;3.72;;;14.30;60.60;;;;;;5016267;28;20033;-67
2022/04/30 02:37:50;;;;;;;6.32;3.60;;;14.30;59.80;;;;;;5016113;28;20140;-65
2022/04/30 02:40:17;;;;;;;8.98;4.10;;;14.30;59.50;;;;;;5016091;28;20033;-64
2022/04/30 02:42:44;;;;;;;6.88;4.20;;;14.30;59.10;;;;;;5016362;28;20026;-69
2022/04/30 02:45:11;;;;;;;9.02;4.07;;;14.30;59.80;;;;;;5016300;28;20046;-64
2022/04/30 02:47:38;;;;;;;10.05;3.65;;;14.20;60.40;;;;;;5015865;28;20486;-69
2022/04/30 02:50:06;;;;;;;5.60;3.97;;;14.20;60.50;;;;;;5015518;28;20120;-69
2022/04/30 02:52:32;;;;;;;5.97;3.92;;;14.20;60.30;;;;;;5015855;28;20085;-64
2022/04/30 02:54:58;;;;;;;9.15;4.13;;;14.20;60.00;;;;;;5015686;28;20113;-64
2022/04/30 02:57:24;;;;;;;5.05;3.55;;;14.10;59.40;;;;;;5015458;28;20458;-64
2022/04/30 02:59:55;;;;;;;5.97;3.85;;;14.10;59.60;;;;;;5015568;28;20105;-65
2022/04/30 03:02:24;;;;;;;8.70;4.07;;;14.10;60.00;;;;;;5015683;28;20022;-70
2022/04/30 03:04:53;;;;;;;11.00;3.95;;;14.10;60.60;;;;;;5015406;28;20133;-70
2022/04/30 03:07:22;;;;;;;5.78;4.00;;;14.10;60.30;;;;;;5015356;28;20489;-65
2022/04/30 03:09:49;;;;;;;6.28;4.30;;;14.00;61.50;;;;;;5015132;28;20408;-64
2022/04/30 03:12:16;;;;;;;6.97;4.22;;;14.00;62.50;;;;;;5012696;28;20030;-65
2022/04/30 03:14:42;;;;;;;8.43;3.85;;;13.90;62.70;;;;;;5012537;28;20034;-66
2022/04/30 03:22:38;;;;;;;7.22;3.95;;;13.70;62.80;;;;;;5015499;28;20084;-69
2022/04/30 03:25:04;;;;;;;8.48;3.58;;;13.80;62.10;;;;;;5015079;28;20018;-65
2022/04/30 03:27:31;;;;;;;12.10;3.95;;;13.80;61.10;;;;;;5015111;28;20105;-65
2022/04/30 03:29:57;;;;;;;6.32;3.58;;;13.70;60.80;;;;;;5014718;28;20084;-65
2022/04/30 03:32:24;;;;;;;9.38;3.63;;;13.80;60.50;;;;;;5014948;28;20026;-70
2022/04/30 03:34:52;;;;;;;6.68;3.20;;;13.70;59.80;;;;;;5014719;28;20030;-70
2022/04/30 03:37:18;;;;;;;9.65;3.53;;;13.70;59.60;;;;;;5015090;28;20080;-64
2022/04/30 03:39:44;;;;;;;6.50;3.70;;;13.70;59.60;;;;;;5015074;28;20022;-70
2022/04/30 03:42:10;;;;;;;9.15;3.50;;;13.70;60.60;;;;;;5014908;28;20029;-64
2022/04/30 03:44:35;;;;;;;7.68;3.53;;;13.70;59.90;;;;;;5014776;28;20088;-70
2022/04/30 03:47:01;;;;;;;8.98;3.33;;;13.60;59.70;;;;;;5015162;28;20025;-64
2022/04/30 03:49:27;;;;;;;7.68;3.58;;;13.60;59.70;;;;;;5014581;28;20108;-70
2022/04/30 03:51:54;;;;;;;10.95;3.78;;;13.60;59.80;;;;;;5014851;28;20061;-64
2022/04/30 03:54:20;;;;;;;8.68;3.63;;;13.50;60.30;;;;;;5014818;28;20059;-65
2022/04/30 03:56:46;;;;;;;7.15;3.33;;;13.50;61.30;;;;;;5014699;28;20045;-66
2022/04/30 03:59:12;;;;;;;5.95;3.55;;;13.50;60.40;;;;;;5014472;28;20025;-69
2022/04/30 04:01:38;;;;;;;5.88;3.72;;;13.50;60.40;;;;;;5014711;28;20446;-69
2022/04/30 04:04:04;;;;;;;7.18;3.97;;;13.50;60.40;;;;;;5014296;28;20054;-64
2022/04/30 04:06:31;;;;;;;6.28;3.95;;;13.40;61.80;;;;;;5014426;28;20121;-64
2022/04/30 04:08:59;;;;;;;7.05;3.67;;;13.40;61.70;;;;;;5014348;28;20032;-70
2022/04/30 04:11:26;;;;;;;6.68;4.15;;;13.40;61.20;;;;;;5014241;28;20102;-64
2022/04/30 04:19:23;;;;;;;10.75;3.95;;;13.30;60.50;;;;;;5014111;28;20109;-64
2022/04/30 04:21:50;;;;;;;6.85;4.20;;;13.30;61.00;;;;;;5014067;28;20390;-68
2022/04/30 04:27:01;;;;;;;5.40;4.28;;;13.30;61.40;;;;;;5014301;28;20032;-70
2022/04/30 04:29:27;;;;;;;6.28;4.00;;;13.30;61.80;;;;;;5013990;28;20113;-64
2022/04/30 04:31:52;;;;;;;4.95;4.00;;;13.10;63.20;;;;;;5013937;28;20102;-67
2022/04/30 04:34:18;;;;;;;8.80;4.35;;;13.10;62.70;;;;;;5014245;28;20459;-64
2022/04/30 04:36:43;;;;;;;8.95;3.90;;;13.20;62.50;;;;;;5013929;28;20046;-67
2022/04/30 04:39:14;;;;;;;5.70;4.00;;;13.20;62.50;;;;;;5013760;28;20371;-64
2022/04/30 04:41:43;;;;;;;9.73;4.68;;;13.20;62.80;;;;;;5013338;28;20033;-65
2022/04/30 04:44:09;;;;;;;6.00;4.43;;;13.20;63.80;;;;;;5013582;28;20100;-64
2022/04/30 04:46:38;;;;;;;5.68;4.07;;;13.10;64.50;;;;;;5013899;28;20366;-64
2022/04/30 04:49:04;;;;;;;4.50;3.65;;;13.10;64.30;;;;;;5013446;28;20029;-64
2022/04/30 04:51:30;;;;;;;12.93;4.82;;;13.10;63.60;;;;;;5013839;28;20109;-64
2022/04/30 04:53:56;;;;;;;7.47;4.70;;;13.10;64.00;;;;;;5013691;28;20431;-65
2022/04/30 04:56:23;;;;;;;10.00;4.80;;;13.10;64.30;;;;;;5013507;28;20083;-69
2022/04/30 04:58:48;;;;;;;6.70;4.25;;;13.10;64.90;;;;;;5013518;28;20033;-70
2022/04/30 05:01:14;;;;;;;6.88;4.53;;;13.20;64.70;;;;;;5013567;28;20026;-70
2022/04/30 05:03:40;;;;;;;5.28;4.35;;;13.20;65.20;;;;;;5013529;28;20549;-64
2022/04/30 05:06:06;;;;;;;4.35;3.53;;;13.30;64.60;;;;;;5013291;28;20130;-64
2022/04/30 05:08:31;;;;;;;7.75;3.70;;;13.30;64.20;;;;;;5011530;28;20367;-65
2022/04/30 05:10:57;;;;;;;5.45;3.88;;;13.30;64.70;;;;;;5010515;28;20030;-66
2022/04/30 05:13:23;;;;;;;5.38;3.88;;;13.40;64.30;;;;;;5011807;28;20433;-65
2022/04/30 05:15:48;;;;;;;6.68;3.50;;;13.40;64.00;;;;;;5013302;28;20080;-70
2022/04/30 05:18:14;;;;;;;7.63;4.20;;;13.50;63.00;;;;;;5013410;28;20022;-69
2022/04/30 05:20:40;;;;;;;5.53;3.92;;;13.50;63.70;;;;;;5012923;28;20462;-64
2022/04/30 05:23:06;;;;;;;6.07;3.75;;;13.50;63.60;;;;;;5012967;28;20026;-69
2022/04/30 05:25:31;;;;;;;7.07;3.25;;;13.60;64.30;;;;;;5012948;28;20061;-65
2022/04/30 05:27:57;;;;;;;8.13;3.58;;;13.60;63.40;;;;;;5012957;28;20105;-65
2022/04/30 05:30:23;;;;;;;6.47;3.78;;;13.60;63.10;;;;;;5012872;28;20125;-68
2022/04/30 05:32:49;;;;;;;8.88;3.90;;;13.70;63.10;;;;;;5013219;28;20049;-65
2022/04/30 05:35:15;;;;;;;5.60;3.70;;;13.80;62.60;;;;;;5013034;28;20034;-69
2022/04/30 05:37:40;;;;;;;5.20;3.75;;;13.80;62.40;;;;;;5013273;28;20041;-70
2022/04/30 05:40:07;;;;;;;5.82;3.60;;;13.90;62.20;;;;;;5013167;28;20030;-65
2022/04/30 05:42:33;;;;;;;5.63;3.70;;;14.00;62.40;;;;;;5013169;28;20100;-65
2022/04/30 05:44:59;;;;;;;4.82;3.47;;;14.00;62.30;;;;;;5012913;28;20061;-69
2022/04/30 05:47:25;;;;;;;7.70;3.25;;;14.10;62.10;;;;;;5012958;28;20100;-69
2022/04/30 05:49:51;;;;;;;8.27;3.63;;;14.10;61.50;;;;;;5012888;28;20026;-64
2022/04/30 05:52:19;;;;;;;5.18;3.40;;;14.20;61.50;;;;;;5012786;28;20022;-65
2022/04/30 05:54:45;;;;;;;6.15;3.70;;;14.10;61.70;;;;;;5015573;28;20037;-68
2022/04/30 05:57:11;;;;;;;10.50;3.58;;;14.20;62.60;;;;;;5016850;28;20119;-64
2022/04/30 05:59:36;;;;;;;6.53;4.20;;;14.20;62.70;;;;;;5015046;28;20314;-69
2022/04/30 06:02:02;;;;;;;6.57;3.88;;;14.30;61.80;;;;;;5016208;28;20026;-68
2022/04/30 06:04:28;;;;;;;5.40;3.78;;;14.30;61.20;;;;;;5015975;28;20397;-66
2022/04/30 06:06:54;;;;;;;8.55;3.38;;;14.40;61.30;;;;;;5016166;28;20111;-64
2022/04/30 06:09:20;;;;;;;5.18;3.40;;;14.40;61.20;;;;;;5016331;28;20068;-63
2022/04/30 06:11:47;;;;;;;7.25;3.78;;;14.50;61.10;;;;;;5016242;28;20030;-63
2022/04/30 06:14:13;;;;;;;8.70;3.80;;;14.60;61.10;;;;;;5016314;28;20030;-63
2022/04/30 06:16:39;;;;;;;9.77;3.90;;;14.60;60.90;;;;;;5015802;28;20045;-64
2022/04/30 06:19:04;;;;;;;6.05;3.40;;;14.60;61.10;;;;;;5016157;28;20025;-64
2022/04/30 06:21:31;;;;;;;8.10;3.40;;;14.70;61.10;;;;;;5016399;28;20022;-64
2022/04/30 06:23:57;;;;;;;6.00;3.50;;;14.70;60.30;;;;;;5015137;28;20432;-65
2022/04/30 06:26:23;;;;;;;7.10;3.28;;;14.80;60.30;;;;;;5014997;28;20030;-65
2022/04/30 06:28:49;;;;;;;7.93;3.80;;;14.80;60.10;;;;;;5014111;28;20018;-68
2022/04/30 06:31:14;;;;;;;5.82;3.58;;;14.90;60.30;;;;;;5015881;28;20022;-64
2022/04/30 06:33:40;;;;;;;10.25;3.60;;;15.00;60.20;;;;;;5014482;28;20029;-65
2022/04/30 06:36:07;;;;;;;10.30;4.28;;;15.10;59.20;;;;;;5015647;28;20034;-65
2022/04/30 06:38:33;;;;;;;11.00;3.78;;;15.10;59.20;;;;;;5015960;28;20018;-64
2022/04/30 06:40:59;;;;;;;6.20;3.30;;;15.20;59.50;;;;;;5015759;28;20033;-64
2022/04/30 06:43:25;;;;;;;7.78;3.17;;;15.30;59.60;;;;;;4991998;28;20044;-64
2022/04/30 06:45:51;;;;;;;6.50;3.50;;;15.30;59.50;;;;;;5015917;28;20038;-64
2022/04/30 06:48:17;;;;;;;9.23;4.00;;;15.30;59.50;;;;;;5015885;28;20052;-64
2022/04/30 06:50:44;;;;;;;14.93;3.60;;;15.40;59.50;;;;;;5015565;28;20096;-68
2022/04/30 06:58:43;;;;;;;9.55;3.10;;;15.60;59.20;;;;;;5015553;28;20115;-63
2022/04/30 07:01:28;;;;;;;5.00;2.75;;;15.70;59.40;;;;;;5015114;28;20041;-68
2022/04/30 07:04:01;;;;;;;6.88;2.92;;;15.70;59.10;;;;;;5015434;28;20030;-66
2022/04/30 07:06:28;;;;;;;4.70;2.88;;;15.80;58.40;;;;;;5014632;28;20140;-66
2022/04/30 07:08:53;;;;;;;5.45;2.90;;;15.90;57.10;;;;;;5015670;28;20049;-66
2022/04/30 07:11:19;;;;;;;6.25;2.95;;;15.90;56.30;;;;;;5015837;28;20144;-65
2022/04/30 07:13:45;;;;;;;4.68;2.50;;;16.00;56.20;;;;;;5015297;28;20021;-65
2022/04/30 07:16:10;;;;;;;8.00;2.47;;;16.00;56.60;;;;;;5015284;28;20041;-68
2022/04/30 07:18:36;;;;;;;9.88;2.90;;;16.10;56.50;;;;;;5015374;28;20025;-65
2022/04/30 07:21:02;;;;;;;6.38;3.00;;;16.20;56.80;;;;;;5015217;28;20037;-68
2022/04/30 07:23:27;;;;;;;7.88;3.03;;;16.30;56.70;;;;;;5015328;28;20084;-67
2022/04/30 07:25:53;;;;;;;5.25;2.78;;;16.30;55.90;;;;;;5015078;28;20026;-67
2022/04/30 07:28:19;;;;;;;11.07;3.00;;;16.40;55.60;;;;;;5015309;28;20050;-68
2022/04/30 07:30:44;;;;;;;6.57;3.00;;;16.50;55.50;;;;;;5015369;28;20097;-65
2022/04/30 07:33:10;;;;;;;5.35;2.78;;;16.50;55.70;;;;;;5015193;28;20022;-65
2022/04/30 07:35:36;;;;;;;3.55;2.50;;;16.60;54.60;;;;;;5015056;28;20398;-66
2022/04/30 07:38:01;;;;;;;8.02;3.20;;;16.70;53.50;;;;;;5015425;28;20079;-67
2022/04/30 07:40:27;;;;;;;5.88;2.90;;;16.70;53.00;;;;;;5015099;28;20030;-67
2022/04/30 07:42:52;;;;;;;5.18;2.50;;;16.80;53.00;;;;;;5014912;28;20037;-65
2022/04/30 07:45:18;;;;;;;3.60;2.88;;;16.90;54.00;;;;;;5015280;28;20571;-68
2022/04/30 07:47:44;;;;;;;5.65;2.58;;;16.90;52.10;;;;;;5015133;28;20046;-67
2022/04/30 07:50:10;;;;;;;5.85;3.00;;;17.00;52.60;;;;;;5014785;28;20496;-67
2022/04/30 07:52:36;;;;;;;5.60;2.50;;;17.10;52.20;;;;;;5015030;28;20386;-65
2022/04/30 07:55:02;;;;;;;4.20;2.40;;;17.10;50.60;;;;;;5014398;28;20113;-67
2022/04/30 07:57:28;;;;;;;5.20;2.70;;;17.20;50.50;;;;;;5014603;28;20026;-65
2022/04/30 07:59:54;;;;;;;6.18;2.80;;;17.30;50.40;;;;;;5014794;28;20386;-67
2022/04/30 08:02:19;;;;;;;6.80;3.03;;;17.30;50.30;;;;;;5014691;28;20438;-66
2022/04/30 08:04:45;;;;;;;5.05;2.65;;;17.40;50.60;;;;;;5014419;28;20053;-65
2022/04/30 08:07:12;;;;;;;7.40;2.83;;;17.50;50.20;;;;;;5014317;28;20026;-65
2022/04/30 08:09:37;;;;;;;10.50;3.58;;;17.50;47.80;;;;;;5012222;28;20088;-66
2022/04/30 08:12:03;;;;;;;5.18;3.00;;;17.60;48.70;;;;;;5011240;28;20030;-65
2022/04/30 08:14:29;;;;;;;11.68;2.80;;;17.60;49.20;;;;;;5011716;28;20474;-66
2022/04/30 08:16:55;;;;;;;5.25;2.88;;;17.70;48.50;;;;;;5012943;28;20038;-66
2022/04/30 08:19:21;;;;;;;5.07;2.80;;;17.80;48.80;;;;;;5014149;28;20025;-68
2022/04/30 08:21:48;;;;;;;6.25;2.20;;;17.80;50.00;;;;;;5014417;28;20107;-67
2022/04/30 08:24:15;;;;;;;5.28;2.13;;;17.90;49.40;;;;;;5014496;28;20017;-68
2022/04/30 08:26:40;;;;;;;7.47;2.47;;;17.90;47.90;;;;;;5014228;28;20022;-67
2022/04/30 08:29:06;;;;;;;3.78;2.30;;;18.00;46.60;;;;;;5014191;28;20360;-67
2022/04/30 08:31:32;;;;;;;8.65;2.50;;;18.10;46.50;;;;;;5014204;28;20429;-66
2022/04/30 08:33:58;;;;;;;6.47;2.30;;;18.10;44.80;;;;;;5014265;28;20034;-66
2022/04/30 08:36:24;;;;;;;7.22;2.85;;;18.20;45.20;;;;;;5013932;28;20076;-68
2022/04/30 08:38:49;;;;;;;4.63;2.60;;;18.30;45.10;;;;;;5013923;28;20101;-66
2022/04/30 08:41:16;;;;;;;4.47;2.20;;;18.30;45.00;;;;;;5013794;28;20025;-66
2022/04/30 08:43:47;;;;;;;4.38;2.53;;;18.40;45.60;;;;;;5013919;28;20030;-66
2022/04/30 08:46:13;;;;;;;3.50;2.20;;;18.40;46.00;;;;;;5013792;28;20105;-68
2022/04/30 08:48:43;;;;;;;8.63;2.33;;;18.50;46.20;;;;;;5014007;28;20029;-68
2022/04/30 08:51:09;;;;;;;7.18;2.08;;;18.50;44.90;;;;;;5013852;28;20033;-66
2022/04/30 08:53:35;;;;;;;3.75;2.50;;;18.60;43.70;;;;;;5013749;28;20543;-65
2022/04/30 08:56:00;;;;;;;5.72;2.88;;;18.60;41.60;;;;;;5013528;28;20045;-67
2022/04/30 08:58:26;;;;;;;7.93;2.53;;;18.60;42.20;;;;;;5013786;28;20088;-66
2022/04/30 09:00:52;;;;;;;5.00;2.63;;;18.70;41.70;;;;;;5013779;28;20069;-67
2022/04/30 09:03:20;;;;;;;6.68;2.58;;;18.70;42.30;;;;;;5013760;28;20422;-67
2022/04/30 09:05:48;;;;;;;5.00;2.50;;;18.80;43.70;;;;;;5013454;28;20057;-66
2022/04/30 09:08:14;;;;;;;3.95;2.30;;;18.90;44.90;;;;;;5013638;28;20078;-66
2022/04/30 09:10:41;;;;;;;5.05;2.40;;;18.90;44.80;;;;;;5013205;28;20030;-66
2022/04/30 09:13:15;;;;;;;6.43;2.40;;;19.00;45.50;;;;;;5013834;28;20109;-65
2022/04/30 09:15:44;;;;;;;4.10;2.15;;;19.10;44.40;;;;;;5013471;28;20132;-65
2022/04/30 09:18:11;;;;;;;6.07;2.55;;;19.10;43.70;;;;;;5013745;28;20028;-67
2022/04/30 09:20:42;;;;;;;3.08;1.90;;;19.10;42.20;;;;;;5013500;28;20104;-67
2022/04/30 09:23:09;;;;;;;6.28;2.20;;;19.20;43.60;;;;;;5013902;28;20532;-67
2022/04/30 09:25:35;;;;;;;7.18;2.10;;;19.30;42.80;;;;;;5013500;28;20033;-67
2022/04/30 09:28:01;;;;;;;8.32;2.53;;;19.40;43.20;;;;;;5012137;28;20101;-66
2022/04/30 09:30:32;;;;;;;4.30;2.50;;;19.50;44.10;;;;;;5013448;28;20030;-66
2022/04/30 09:33:02;;;;;;;6.30;2.53;;;19.60;43.70;;;;;;5013321;28;20022;-65
2022/04/30 09:38:13;;;;;;;4.80;2.20;;;19.70;42.90;;;;;;5013745;28;20049;-66
2022/04/30 09:40:38;;;;;;;6.30;2.22;;;19.70;40.30;;;;;;5013513;28;20026;-66
2022/04/30 09:43:15;;;;;;;3.95;1.90;;;19.80;40.60;;;;;;5013361;28;20097;-65
2022/04/30 09:45:40;;;;;;;3.65;1.92;;;19.70;39.60;;;;;;5013197;28;20026;-65
2022/04/30 09:53:56;;;;;;;3.65;1.67;;;19.70;39.20;;;;;;5013260;28;20351;-65
2022/04/30 09:53:56;;;;;;;3.83;2.13;;;19.80;40.40;;;;;;5013443;28;20041;-67
2022/04/30 09:56:44;;;;;;;4.88;2.22;;;19.90;40.70;;;;;;5012961;28;20117;-66
2022/04/30 09:59:14;;;;;;;2.88;1.85;;;20.00;40.60;;;;;;5013436;28;20029;-66
2022/04/30 10:01:45;;;;;;;6.60;2.13;;;20.00;41.80;;;;;;5013077;28;20061;-66
2022/04/30 10:04:18;;;;;;;3.03;1.88;;;20.20;40.50;;;;;;5013149;28;20037;-66
2022/04/30 10:06:53;;;;;;;3.97;2.25;;;20.20;41.30;;;;;;5013084;28;20030;-67
2022/04/30 10:09:29;;;;;;;4.45;2.00;;;20.30;40.00;;;;;;5013076;28;20033;-65
2022/04/30 10:12:19;;;;;;;2.80;1.98;;;20.30;39.80;;;;;;5013323;28;20030;-66
2022/04/30 10:14:52;;;;;;;3.55;2.25;;;20.40;40.10;;;;;;5012898;28;20041;-66
2022/04/30 10:17:22;;;;;;;3.85;2.35;;;20.50;39.90;;;;;;5013060;28;20056;-65
2022/04/30 10:20:00;;;;;;;3.95;2.15;;;20.60;41.00;;;;;;5012948;28;20068;-66
2022/04/30 10:22:26;;;;;;;3.53;2.08;;;20.60;38.60;;;;;;5012697;28;20030;-67
2022/04/30 10:24:56;;;;;;;4.40;2.03;;;20.70;39.90;;;;;;5012837;28;20022;-66
2022/04/30 10:27:22;;;;;;;3.25;2.00;;;20.80;41.00;;;;;;5012769;28;20026;-66
2022/04/30 10:29:54;;;;;;;4.70;2.20;;;20.90;39.60;;;;;;5013100;28;20088;-66
2022/04/30 10:32:32;;;;;;;6.97;2.30;;;20.90;38.60;;;;;;5012900;28;20055;-65
2022/04/30 10:34:59;;;;;;;4.80;2.10;;;21.00;39.30;;;;;;5012828;28;20037;-65
2022/04/30 10:37:29;;;;;;;4.85;2.30;;;21.10;38.00;;;;;;5013032;28;20343;-65
2022/04/30 10:39:59;;;;;;;3.22;1.95;;;21.10;39.30;;;;;;5012707;28;20500;-65
2022/04/30 10:42:32;;;;;;;2.70;1.88;;;21.20;36.80;;;;;;5016491;28;20026;-67
2022/04/30 10:44:58;;;;;;;3.45;2.25;;;21.30;37.70;;;;;;5016247;28;20489;-65
2022/04/30 10:47:25;;;;;;;8.57;2.10;;;21.40;38.40;;;;;;5016076;28;20026;-66
2022/04/30 10:49:51;;;;;;;3.90;1.75;;;21.40;36.50;;;;;;5016340;28;20026;-65
2022/04/30 10:52:25;;;;;;;11.35;2.03;;;21.40;36.70;;;;;;5016250;28;20386;-65
2022/04/30 10:54:54;;;;;;;4.85;1.63;;;21.40;37.20;;;;;;5016093;28;20360;-67
2022/04/30 10:57:20;;;;;;;3.65;1.80;;;21.40;36.50;;;;;;5016046;28;20105;-65
2022/04/30 10:59:57;;;;;;;4.78;1.85;;;21.40;38.70;;;;;;5015997;28;20026;-65
2022/04/30 11:02:22;;;;;;;3.80;1.80;;;21.50;38.50;;;;;;5015949;28;20022;-65
2022/04/30 11:04:48;;;;;;;2.80;1.92;;;21.60;39.10;;;;;;5015773;28;20053;-66
2022/04/30 11:07:16;;;;;;;6.88;1.90;;;21.70;39.00;;;;;;5015784;28;20033;-67
2022/04/30 11:09:43;;;;;;;5.10;1.88;;;21.80;36.90;;;;;;5014576;28;20394;-67
2022/04/30 11:12:14;;;;;;;10.50;2.10;;;21.90;36.20;;;;;;5015699;28;20053;-65
2022/04/30 11:14:46;;;;;;;4.10;1.77;;;21.90;36.70;;;;;;5015895;28;20387;-66
2022/04/30 11:17:12;;;;;;;4.00;1.80;;;22.00;35.90;;;;;;5015759;28;20490;-66
2022/04/30 11:19:42;;;;;;;3.53;2.00;;;22.00;35.90;;;;;;5015475;28;20037;-65
2022/04/30 11:22:14;;;;;;;3.55;1.70;;;22.10;34.80;;;;;;5015453;28;20022;-66
2022/04/30 11:24:41;;;;;;;3.83;2.03;;;22.10;36.70;;;;;;5015557;28;20025;-66
2022/04/30 11:27:08;;;;;;;4.97;1.70;;;22.20;36.30;;;;;;5015561;28;20367;-67
2022/04/30 11:29:47;;;;;;;2.83;1.67;;;22.30;34.80;;;;;;5015945;28;20037;-67
2022/04/30 11:32:20;;;;;;;3.15;1.90;;;22.40;34.70;;;;;;5015351;28;20172;-68
2022/04/30 11:34:46;;;;;;;7.38;2.15;;;22.40;35.70;;;;;;5015237;28;20084;-67
2022/04/30 11:37:12;;;;;;;5.20;1.98;;;22.50;35.30;;;;;;5015656;28;20038;-67
2022/04/30 11:39:37;;;;;;;4.45;1.65;;;22.50;34.10;;;;;;5015282;28;20046;-67
2022/04/30 11:42:03;;;;;;;3.63;1.60;;;22.50;35.20;;;;;;5015096;28;20029;-65
2022/04/30 11:44:29;;;;;;;4.05;1.70;;;22.60;37.00;;;;;;5014785;28;20029;-67
2022/04/30 11:46:55;;;;;;;5.13;1.60;;;22.70;33.80;;;;;;5015494;28;20038;-66
2022/04/30 11:49:23;;;;;;;5.45;2.08;;;22.70;33.80;;;;;;5015010;28;20475;-67
2022/04/30 11:51:51;;;;;;;3.90;1.80;;;22.80;34.00;;;;;;5014720;28;20026;-67
2022/04/30 11:54:21;;;;;;;3.17;1.42;;;22.90;34.50;;;;;;5015080;28;20485;-66
2022/04/30 11:56:49;;;;;;;2.80;1.63;;;23.00;33.90;;;;;;5014709;28;20041;-65
2022/04/30 11:59:14;;;;;;;4.47;2.08;;;23.10;35.30;;;;;;5015092;28;20069;-66
2022/04/30 12:01:42;;;;;;;2.60;1.65;;;23.20;35.20;;;;;;5015024;28;20424;-66
2022/04/30 12:04:11;;;;;;;5.18;2.10;;;23.30;35.00;;;;;;5014426;28;20034;-67
2022/04/30 12:06:38;;;;;;;4.43;1.75;;;23.30;33.80;;;;;;5014650;28;20041;-67
2022/04/30 12:09:19;;;;;;;9.68;2.22;;;23.40;34.10;;;;;;5014555;28;20025;-65
2022/04/30 12:11:53;;;;;;;3.35;1.90;;;23.40;32.60;;;;;;5014828;28;20030;-67
2022/04/30 12:14:19;;;;;;;3.15;1.58;;;23.40;33.70;;;;;;5014824;28;20053;-66
2022/04/30 12:16:47;;;;;;;5.30;2.20;;;23.40;35.10;;;;;;5014346;28;20041;-66
2022/04/30 12:25:11;;;;;;;2.80;1.55;;;23.60;33.30;;;;;;5014749;28;20128;-67
2022/04/30 12:27:40;;;;;;;4.78;1.95;;;23.60;33.40;;;;;;5014494;28;20080;-67
2022/04/30 12:30:16;;;;;;;2.70;1.50;;;23.70;36.00;;;;;;5014269;28;20378;-66
2022/04/30 12:32:58;;;;;;;2.80;1.52;;;23.80;36.30;;;;;;5014452;28;20038;-66
2022/04/30 12:35:30;;;;;;;4.30;1.70;;;24.00;36.00;;;;;;5014365;28;20088;-67
2022/04/30 12:38:11;;;;;;;4.90;2.10;;;24.00;35.00;;;;;;5014444;28;20022;-66
2022/04/30 12:40:43;;;;;;;3.27;1.90;;;24.10;33.10;;;;;;5014235;28;20113;-66
2022/04/30 12:43:09;;;;;;;6.13;1.90;;;24.10;32.30;;;;;;5014409;28;20260;-66
2022/04/30 13:53:12;;;;;;;12.63;2.20;;;25.00;33.70;;;;;;5008659;28;20116;-68
2022/04/30 13:55:39;;;;;;;5.43;1.85;;;25.00;35.00;;;;;;5032135;28;20152;-69
2022/04/30 13:58:04;;;;;;;3.58;1.70;;;25.00;36.20;;;;;;5030039;28;20386;-68
2022/04/30 14:00:30;;;;;;;3.75;2.03;;;25.00;36.10;;;;;;5032845;28;20040;-67
2022/04/30 14:02:56;;;;;;;4.47;1.60;;;25.10;35.40;;;;;;5032907;28;20112;-68
2022/04/30 14:05:22;;;;;;;4.40;1.77;;;25.10;33.40;;;;;;5032700;28;20042;-67
2022/04/30 14:07:47;;;;;;;2.53;1.70;;;25.20;31.50;;;;;;5032182;28;20034;-67
2022/04/30 14:10:13;;;;;;;64.25;6.55;;;25.20;30.10;;;;;;5032369;28;20037;-66
2022/04/30 14:12:39;;;;;;;11.02;1.95;;;25.20;31.50;;;;;;5032846;28;20036;-68
2022/04/30 14:15:06;;;;;;;3.28;2.15;;;25.20;32.90;;;;;;5034063;28;20084;-68
2022/04/30 14:20:17;;;;;;;3.45;1.95;;;25.20;32.90;;;;;;5036327;28;20028;-67
2022/04/30 14:22:45;;;;;;;5.88;2.08;;;25.30;31.30;;;;;;5036017;28;20089;-69
2022/04/30 14:25:13;;;;;;;6.93;1.83;;;25.20;32.80;;;;;;5036170;28;20091;-69
2022/04/30 14:27:43;;;;;;;4.97;2.03;;;25.10;31.90;;;;;;5036178;28;20034;-67
2022/04/30 14:30:10;;;;;;;5.70;2.00;;;25.00;32.80;;;;;;5036384;28;20034;-68
2022/04/30 14:32:37;;;;;;;4.20;1.92;;;24.90;33.00;;;;;;5035279;28;20112;-67
2022/04/30 14:35:05;;;;;;;4.00;1.83;;;24.70;31.90;;;;;;5033326;28;20029;-69